Time;durP1;ratioP1;P1;durP2;ratioP2;P2;SDS_P1;SDS_P2;PMS_P1;PMS_P2;Temp;Humidity;BMP_temperature;BMP_pressure;BME280_temperature;BME280_humidity;BME280_pressure;Samples;Min_cycle;Max_cycle;Signal;HPM_P1;HPM_P2
2021/07/25 00:00:42;;;;;;;14.95;7.18;;;16.90;99.90;;;;;;5075995;28;20024;-78
2021/07/25 00:03:11;;;;;;;19.55;10.65;;;16.90;99.90;;;;;;5076128;28;20028;-78
2021/07/25 00:05:40;;;;;;;12.50;7.25;;;16.90;99.90;;;;;;5075803;28;20021;-78
2021/07/25 00:08:11;;;;;;;11.25;8.15;;;17.00;99.90;;;;;;5075634;28;20048;-78
2021/07/25 00:10:44;;;;;;;15.07;6.53;;;17.00;99.90;;;;;;5076159;28;20020;-79
2021/07/25 00:13:10;;;;;;;17.30;8.02;;;17.10;99.90;;;;;;5075873;28;20017;-79
2021/07/25 00:15:37;;;;;;;18.67;9.35;;;17.10;99.90;;;;;;5095530;28;20125;-77
2021/07/25 00:18:04;;;;;;;19.10;7.50;;;17.20;99.90;;;;;;5095910;28;20024;-78
2021/07/25 00:20:30;;;;;;;16.92;9.15;;;17.10;99.90;;;;;;5095872;28;20056;-77
2021/07/25 00:22:57;;;;;;;14.05;7.03;;;17.20;99.90;;;;;;5095818;28;20093;-78
2021/07/25 00:25:23;;;;;;;30.02;22.42;;;17.20;99.90;;;;;;5095746;28;20028;-78
2021/07/25 00:27:54;;;;;;;;;;;17.10;99.90;;;;;;5096057;28;20391;-77
2021/07/25 00:30:21;;;;;;;16.17;9.32;;;17.20;99.90;;;;;;5096060;28;20356;-78
2021/07/25 00:32:47;;;;;;;13.35;8.30;;;17.10;99.90;;;;;;5095688;28;20488;-78
2021/07/25 00:35:14;;;;;;;13.18;7.22;;;17.10;99.90;;;;;;5095596;28;20012;-78
2021/07/25 00:37:47;;;;;;;13.50;7.25;;;17.10;99.90;;;;;;5095462;28;20030;-78
2021/07/25 00:40:24;;;;;;;13.50;9.68;;;17.10;99.90;;;;;;5095704;28;20020;-79
2021/07/25 00:42:50;;;;;;;15.35;7.10;;;17.20;99.90;;;;;;5095581;28;20054;-78
2021/07/25 00:45:15;;;;;;;;;;;17.20;99.90;;;;;;5095780;28;20016;-77
2021/07/25 00:47:41;;;;;;;22.27;11.00;;;17.20;99.90;;;;;;5095282;28;19947;-79
2021/07/25 00:50:08;;;;;;;;;;;17.20;99.90;;;;;;5095913;28;20020;-78
2021/07/25 00:52:33;;;;;;;20.98;11.45;;;17.20;99.90;;;;;;5095231;28;19911;-78
2021/07/25 00:54:59;;;;;;;;;;;17.20;99.90;;;;;;5095715;28;20384;-77
2021/07/25 00:57:25;;;;;;;15.43;7.63;;;17.10;99.90;;;;;;5076942;28;20364;-78
2021/07/25 00:59:50;;;;;;;;;;;17.10;99.90;;;;;;5095551;28;20034;-77
2021/07/25 01:02:16;;;;;;;16.25;8.60;;;17.10;99.90;;;;;;5095021;28;19905;-79
2021/07/25 01:04:47;;;;;;;;;;;17.10;99.90;;;;;;5095423;28;20099;-79
2021/07/25 01:07:48;;;;;;;14.48;8.38;;;17.10;99.90;;;;;;5095017;28;20364;-78
2021/07/25 01:10:28;;;;;;;31.25;19.40;;;17.20;99.90;;;;;;5076402;28;20032;-77
2021/07/25 01:13:17;;;;;;;20.75;13.57;;;17.10;99.90;;;;;;5094943;28;20016;-77
2021/07/25 01:15:44;;;;;;;32.90;22.92;;;17.10;99.90;;;;;;5094921;28;20462;-78
2021/07/25 01:18:10;;;;;;;26.45;16.08;;;17.10;99.90;;;;;;5094579;28;20047;-78
2021/07/25 01:20:35;;;;;;;;;;;17.00;99.90;;;;;;5094611;28;20028;-77
2021/07/25 01:23:01;;;;;;;22.60;7.60;;;17.10;99.90;;;;;;5094753;28;19904;-77
2021/07/25 01:25:27;;;;;;;;;;;17.00;99.90;;;;;;5095037;28;20020;-77
2021/07/25 01:27:56;;;;;;;16.98;9.00;;;17.10;99.90;;;;;;5094476;28;20368;-78
2021/07/25 01:30:24;;;;;;;20.45;11.18;;;17.20;99.90;;;;;;5094499;28;20024;-77
2021/07/25 01:32:54;;;;;;;15.45;9.43;;;17.10;99.90;;;;;;5094426;28;20024;-79
2021/07/25 01:35:22;;;;;;;27.05;17.27;;;17.10;99.90;;;;;;5094441;28;20016;-78
2021/07/25 01:37:48;;;;;;;21.45;9.75;;;17.10;99.90;;;;;;5094392;28;20028;-79
2021/07/25 01:40:19;;;;;;;;;;;17.10;99.90;;;;;;5094694;28;20031;-78
2021/07/25 01:42:45;;;;;;;15.77;7.60;;;17.10;99.90;;;;;;5094139;28;19904;-78
2021/07/25 01:45:11;;;;;;;;;;;17.10;99.90;;;;;;5094730;28;20030;-78
2021/07/25 01:47:38;;;;;;;28.05;22.88;;;17.00;99.90;;;;;;5094071;28;20311;-78
2021/07/25 01:50:05;;;;;;;22.25;12.30;;;16.70;99.90;;;;;;5094076;28;20027;-77
2021/07/25 01:52:31;;;;;;;31.20;21.15;;;16.70;99.90;;;;;;5094401;28;20099;-77
2021/07/25 01:54:57;;;;;;;22.42;12.63;;;16.50;99.90;;;;;;5094083;28;20023;-79
2021/07/25 01:57:22;;;;;;;;;;;16.60;99.90;;;;;;5094388;28;20107;-79
2021/07/25 01:59:48;;;;;;;31.88;21.10;;;16.60;99.90;;;;;;5093950;28;19907;-77
2021/07/25 02:02:14;;;;;;;;;;;16.60;99.90;;;;;;5094322;28;20061;-78
2021/07/25 02:04:39;;;;;;;18.63;10.45;;;16.50;99.90;;;;;;5094115;28;19904;-78
2021/07/25 02:07:05;;;;;;;;;;;16.50;99.90;;;;;;5094199;28;20020;-76
2021/07/25 02:09:38;;;;;;;37.67;22.63;;;16.50;99.90;;;;;;5075624;28;20401;-78
2021/07/25 02:12:05;;;;;;;30.13;16.48;;;16.50;99.90;;;;;;5093820;28;20024;-78
2021/07/25 02:14:32;;;;;;;29.55;17.45;;;16.50;99.90;;;;;;5093541;28;20454;-78
2021/07/25 02:16:59;;;;;;;35.53;21.33;;;16.50;99.90;;;;;;5093654;28;20502;-78
2021/07/25 02:19:24;;;;;;;16.50;11.25;;;16.50;99.90;;;;;;5093669;28;20480;-78
2021/07/25 02:21:50;;;;;;;;;;;16.60;99.90;;;;;;5075824;28;20020;-77
2021/07/25 02:24:16;;;;;;;33.97;22.33;;;16.60;99.90;;;;;;5093665;28;20295;-78
2021/07/25 02:26:41;;;;;;;;;;;16.50;99.90;;;;;;5093858;28;20472;-78
2021/07/25 02:29:07;;;;;;;30.65;15.77;;;16.50;99.90;;;;;;5093472;28;20257;-78
2021/07/25 02:31:33;;;;;;;;;;;16.40;99.90;;;;;;5093024;28;20048;-77
2021/07/25 02:33:58;;;;;;;17.92;11.52;;;16.40;99.90;;;;;;5093401;28;20372;-78
2021/07/25 02:36:24;;;;;;;;;;;16.50;99.90;;;;;;5093898;28;20058;-78
2021/07/25 02:38:50;;;;;;;32.55;21.95;;;16.50;99.90;;;;;;5093330;28;19942;-77
2021/07/25 02:41:15;;;;;;;;;;;16.50;99.90;;;;;;5093739;28;20040;-77
2021/07/25 02:43:41;;;;;;;15.10;10.35;;;16.60;99.90;;;;;;5093308;28;19927;-78
2021/07/25 02:46:07;;;;;;;;;;;16.60;99.90;;;;;;5093922;28;20039;-79
2021/07/25 02:48:32;;;;;;;21.83;10.55;;;16.60;99.90;;;;;;5093230;28;19915;-77
2021/07/25 02:50:59;;;;;;;;;;;16.60;99.90;;;;;;5093674;28;20024;-77
2021/07/25 02:53:26;;;;;;;17.17;11.05;;;16.70;99.90;;;;;;5093224;28;19904;-78
2021/07/25 02:55:53;;;;;;;15.95;10.40;;;16.70;99.90;;;;;;5075006;28;20020;-78
2021/07/25 02:58:18;;;;;;;19.52;10.68;;;16.60;99.90;;;;;;5093168;28;20103;-78
2021/07/25 03:00:44;;;;;;;;;;;16.70;99.90;;;;;;5093524;28;20044;-77
2021/07/25 03:03:10;;;;;;;17.60;11.10;;;16.70;99.90;;;;;;5093326;28;19904;-78
2021/07/25 03:05:35;;;;;;;;;;;16.70;99.90;;;;;;5093708;28;20024;-77
2021/07/25 03:08:01;;;;;;;19.70;13.07;;;16.80;99.90;;;;;;5074898;28;19912;-78
2021/07/25 03:10:27;;;;;;;;;;;16.80;99.90;;;;;;5093437;28;20048;-78
2021/07/25 03:12:53;;;;;;;22.85;14.73;;;16.80;99.90;;;;;;5093046;28;19910;-78
2021/07/25 03:15:18;;;;;;;;;;;16.80;99.90;;;;;;5093002;28;20040;-78
2021/07/25 03:17:44;;;;;;;28.40;16.23;;;16.90;99.90;;;;;;5092968;28;19904;-78
2021/07/25 03:20:10;;;;;;;;;;;17.00;99.90;;;;;;5093715;28;20024;-78
2021/07/25 03:22:36;;;;;;;29.48;18.10;;;17.00;99.90;;;;;;5092933;28;19940;-78
2021/07/25 03:25:02;;;;;;;;;;;17.00;99.90;;;;;;5093239;28;20051;-78
2021/07/25 03:27:28;;;;;;;27.50;20.60;;;17.20;99.90;;;;;;5092803;28;19912;-78
2021/07/25 03:29:54;;;;;;;;;;;17.20;99.90;;;;;;5093291;28;20054;-79
2021/07/25 03:32:20;;;;;;;37.17;21.38;;;17.20;99.90;;;;;;5093031;28;19911;-77
2021/07/25 03:34:46;;;;;;;;;;;17.20;99.90;;;;;;5075012;28;20016;-78
2021/07/25 03:37:12;;;;;;;32.95;21.83;;;17.30;99.90;;;;;;5092810;28;20024;-77
2021/07/25 03:39:39;;;;;;;34.85;22.25;;;17.30;99.90;;;;;;5092737;28;20119;-78
2021/07/25 03:42:05;;;;;;;30.05;19.67;;;17.20;99.90;;;;;;5092903;28;20031;-78
2021/07/25 03:44:32;;;;;;;28.50;19.63;;;17.30;99.90;;;;;;5078315;28;20097;-78
2021/07/25 03:46:58;;;;;;;26.20;18.88;;;17.30;99.90;;;;;;5096396;28;20073;-76
2021/07/25 03:49:24;;;;;;;32.10;19.88;;;17.40;99.90;;;;;;5096089;28;20024;-78
2021/07/25 03:51:50;;;;;;;34.38;19.83;;;17.30;99.90;;;;;;5096389;28;20028;-78
2021/07/25 03:54:17;;;;;;;34.75;20.13;;;17.30;99.90;;;;;;5096557;28;20077;-78
2021/07/25 03:56:43;;;;;;;36.80;18.63;;;17.40;99.90;;;;;;5096308;28;20012;-78
2021/07/25 03:59:08;;;;;;;;;;;17.40;99.90;;;;;;5096920;28;20447;-78
2021/07/25 04:01:34;;;;;;;40.83;20.00;;;17.50;99.90;;;;;;5096231;28;19911;-78
2021/07/25 04:04:00;;;;;;;;;;;17.50;99.90;;;;;;5096641;28;20015;-77
2021/07/25 04:06:25;;;;;;;37.13;20.77;;;17.40;99.90;;;;;;5096378;28;19904;-78
2021/07/25 04:08:51;;;;;;;;;;;17.40;99.90;;;;;;5096530;28;20024;-78
2021/07/25 04:11:18;;;;;;;37.42;19.92;;;17.50;99.90;;;;;;5096039;28;19908;-78
2021/07/25 04:13:44;;;;;;;33.88;19.92;;;17.50;99.90;;;;;;5095823;28;20047;-78
2021/07/25 04:16:10;;;;;;;33.15;19.25;;;17.40;99.90;;;;;;5096171;28;20046;-77
2021/07/25 04:18:36;;;;;;;;;;;17.40;99.90;;;;;;5096434;28;20480;-78
2021/07/25 04:21:02;;;;;;;33.33;20.50;;;17.30;99.90;;;;;;5095891;28;20261;-79
2021/07/25 04:23:28;;;;;;;30.35;19.38;;;17.30;99.90;;;;;;5095738;28;20121;-78
2021/07/25 04:25:53;;;;;;;;;;;17.20;99.90;;;;;;5096407;28;20492;-78
2021/07/25 04:28:19;;;;;;;39.03;20.02;;;17.10;99.90;;;;;;5095629;28;19934;-78
2021/07/25 04:30:45;;;;;;;30.17;17.20;;;17.10;99.90;;;;;;5095800;28;20024;-78
2021/07/25 04:33:11;;;;;;;;;;;17.10;99.90;;;;;;5096093;28;20506;-78
2021/07/25 04:35:39;;;;;;;27.20;17.65;;;17.20;99.90;;;;;;5095774;28;19904;-77
2021/07/25 04:38:06;;;;;;;27.30;16.63;;;17.20;99.90;;;;;;5095480;28;20107;-77
2021/07/25 04:40:32;;;;;;;30.40;17.75;;;17.20;99.90;;;;;;5095526;28;20384;-78
2021/07/25 04:42:59;;;;;;;27.73;17.63;;;17.30;99.90;;;;;;5095486;28;20040;-78
2021/07/25 04:45:30;;;;;;;29.35;18.35;;;17.20;99.90;;;;;;5077231;28;20074;-77
2021/07/25 04:48:06;;;;;;;26.10;17.52;;;17.20;99.90;;;;;;5076766;28;20063;-78
2021/07/25 04:50:45;;;;;;;25.38;16.00;;;17.20;99.90;;;;;;5095264;28;20066;-78
2021/07/25 04:53:24;;;;;;;31.27;20.60;;;17.30;99.90;;;;;;5076835;28;20450;-78
2021/07/25 04:56:01;;;;;;;27.80;16.25;;;17.20;99.90;;;;;;5094385;28;20020;-78
2021/07/25 04:58:39;;;;;;;36.85;25.05;;;17.30;99.90;;;;;;5095379;28;20020;-79
2021/07/25 05:01:05;;;;;;;24.52;15.13;;;17.20;99.90;;;;;;5095202;28;20024;-78
2021/07/25 05:03:33;;;;;;;28.50;15.40;;;17.30;99.90;;;;;;5095000;28;20098;-77
2021/07/25 05:05:59;;;;;;;25.20;14.70;;;17.40;99.90;;;;;;5076807;28;20024;-79
2021/07/25 05:08:25;;;;;;;26.15;17.13;;;17.30;99.90;;;;;;5095058;28;20434;-78
2021/07/25 05:11:03;;;;;;;22.02;14.30;;;17.30;99.90;;;;;;5095073;28;20016;-79
2021/07/25 05:13:33;;;;;;;30.38;16.20;;;17.30;99.90;;;;;;5094699;28;20024;-79
2021/07/25 05:16:06;;;;;;;28.05;14.68;;;17.30;99.90;;;;;;5076321;28;20093;-77
2021/07/25 05:18:36;;;;;;;22.35;13.88;;;17.40;99.90;;;;;;5095093;28;20032;-78
2021/07/25 05:21:26;;;;;;;20.90;13.40;;;17.40;99.90;;;;;;5095025;28;20407;-78
2021/07/25 05:23:54;;;;;;;25.15;14.32;;;17.40;99.90;;;;;;5094591;28;20477;-79
2021/07/25 05:26:25;;;;;;;24.63;12.95;;;17.40;99.90;;;;;;5094602;28;20024;-78
2021/07/25 05:28:58;;;;;;;23.77;13.38;;;17.50;99.90;;;;;;5076037;28;20399;-78
2021/07/25 05:31:33;;;;;;;21.50;13.18;;;17.50;99.90;;;;;;5094582;28;20024;-78
2021/07/25 05:34:02;;;;;;;23.15;12.88;;;17.60;99.90;;;;;;5094452;28;20077;-79
2021/07/25 05:36:29;;;;;;;22.25;12.23;;;17.80;99.90;;;;;;5076174;28;20488;-78
2021/07/25 05:38:54;;;;;;;28.55;13.70;;;17.80;99.90;;;;;;5094580;28;20032;-77
2021/07/25 05:41:21;;;;;;;22.15;12.35;;;17.80;99.90;;;;;;5094233;28;20431;-77
2021/07/25 05:43:47;;;;;;;26.20;13.65;;;17.70;99.90;;;;;;5094241;28;20054;-77
2021/07/25 05:46:12;;;;;;;;;;;17.50;99.90;;;;;;5094629;28;20532;-78
2021/07/25 05:48:38;;;;;;;25.63;11.93;;;17.30;99.90;;;;;;5094303;28;20260;-79
2021/07/25 05:51:03;;;;;;;;;;;17.40;99.90;;;;;;5094580;28;20028;-79
2021/07/25 05:53:31;;;;;;;32.38;19.95;;;17.30;99.90;;;;;;5094225;28;19946;-78
2021/07/25 05:55:57;;;;;;;27.52;13.13;;;17.30;99.90;;;;;;5094047;28;20020;-78
2021/07/25 05:58:22;;;;;;;23.65;13.63;;;17.40;99.90;;;;;;5093982;28;20028;-78
2021/07/25 06:00:48;;;;;;;;;;;17.50;99.90;;;;;;5076156;28;20441;-77
2021/07/25 06:03:14;;;;;;;28.30;13.63;;;17.60;99.90;;;;;;5093996;28;19904;-77
2021/07/25 06:05:39;;;;;;;27.65;15.25;;;17.60;99.90;;;;;;5093872;28;20150;-77
2021/07/25 06:08:06;;;;;;;;;;;17.60;99.90;;;;;;5094232;28;20024;-78
2021/07/25 06:10:33;;;;;;;24.05;12.95;;;17.60;99.90;;;;;;5093804;28;19904;-78
2021/07/25 06:13:01;;;;;;;26.63;13.68;;;17.80;99.90;;;;;;5093744;28;20102;-78
2021/07/25 06:15:28;;;;;;;22.73;12.18;;;17.90;99.90;;;;;;5093184;28;20055;-78
2021/07/25 06:17:55;;;;;;;23.08;12.30;;;18.10;99.90;;;;;;5093598;28;20062;-78
2021/07/25 06:20:21;;;;;;;28.23;14.02;;;18.10;99.90;;;;;;5093754;28;20024;-77
2021/07/25 06:22:50;;;;;;;23.35;11.88;;;18.10;99.90;;;;;;5093579;28;20028;-78
2021/07/25 06:25:20;;;;;;;23.90;16.17;;;18.20;99.90;;;;;;5093475;28;20090;-78
2021/07/25 06:27:47;;;;;;;24.70;15.70;;;18.00;99.90;;;;;;5093524;28;20027;-78
2021/07/25 06:30:14;;;;;;;20.55;13.75;;;18.00;99.90;;;;;;5093531;28;20013;-77
2021/07/25 06:33:06;;;;;;;37.10;20.67;;;18.10;99.90;;;;;;5093426;28;20077;-79
2021/07/25 06:35:37;;;;;;;21.88;13.38;;;18.10;99.90;;;;;;5093538;28;20024;-79
2021/07/25 06:38:05;;;;;;;25.65;13.60;;;18.30;99.90;;;;;;5074978;28;20392;-78
2021/07/25 06:40:32;;;;;;;23.88;13.68;;;18.30;99.90;;;;;;5093371;28;20369;-77
2021/07/25 06:43:00;;;;;;;22.33;16.27;;;18.60;99.90;;;;;;5093514;28;20175;-78
2021/07/25 06:45:27;;;;;;;33.83;18.13;;;18.60;99.90;;;;;;5075282;28;20020;-77
2021/07/25 06:47:53;;;;;;;41.75;27.05;;;18.70;99.90;;;;;;5093170;28;20103;-78
2021/07/25 06:50:23;;;;;;;46.33;30.88;;;18.50;99.90;;;;;;5075129;28;20520;-78
2021/07/25 06:52:51;;;;;;;27.45;15.35;;;18.40;99.90;;;;;;5093235;28;20094;-78
2021/07/25 06:55:22;;;;;;;29.50;16.98;;;18.50;99.90;;;;;;5093169;28;20016;-77
2021/07/25 06:57:48;;;;;;;37.65;29.95;;;18.60;99.90;;;;;;5093482;28;20106;-78
2021/07/25 07:00:14;;;;;;;35.80;21.00;;;18.60;99.90;;;;;;5093135;28;20388;-79
2021/07/25 07:02:47;;;;;;;27.98;19.42;;;18.70;99.90;;;;;;5093134;28;20026;-77
2021/07/25 07:05:15;;;;;;;31.77;24.58;;;18.90;99.90;;;;;;5093363;28;20031;-79
2021/07/25 07:07:40;;;;;;;35.13;25.77;;;18.70;99.90;;;;;;5092978;28;20503;-78
2021/07/25 07:10:06;;;;;;;28.85;22.23;;;18.90;99.90;;;;;;5092773;28;20028;-79
2021/07/25 07:12:34;;;;;;;33.38;22.10;;;19.10;99.90;;;;;;5092985;28;20070;-78
2021/07/25 07:15:00;;;;;;;34.17;22.42;;;19.00;99.90;;;;;;5092833;28;20531;-78
2021/07/25 07:17:25;;;;;;;31.52;20.55;;;19.00;99.90;;;;;;5093832;28;20020;-79
2021/07/25 07:19:51;;;;;;;21.23;14.65;;;19.00;99.90;;;;;;5097093;28;20024;-77
2021/07/25 07:22:26;;;;;;;16.52;11.13;;;19.00;99.90;;;;;;5096982;28;20446;-77
2021/07/25 07:24:52;;;;;;;72.73;60.60;;;19.20;99.90;;;;;;5079008;28;20063;-79
2021/07/25 07:27:17;;;;;;;24.75;13.48;;;18.80;99.90;;;;;;5096835;28;20056;-78
2021/07/25 07:29:43;;;;;;;91.10;68.78;;;18.90;99.90;;;;;;5096865;28;20016;-78
2021/07/25 07:32:09;;;;;;;27.30;17.50;;;18.80;99.90;;;;;;5078558;28;20074;-78
2021/07/25 07:34:35;;;;;;;48.03;36.08;;;18.90;99.90;;;;;;5096716;28;20032;-77
2021/07/25 07:37:01;;;;;;;37.60;26.33;;;19.00;99.90;;;;;;5096946;28;20025;-78
2021/07/25 07:39:27;;;;;;;41.45;29.58;;;19.00;99.90;;;;;;5096659;28;20039;-79
2021/07/25 07:41:53;;;;;;;42.67;29.92;;;19.10;99.90;;;;;;5096617;28;20026;-78
2021/07/25 07:44:19;;;;;;;34.40;25.58;;;19.20;99.90;;;;;;5096567;28;20103;-78
2021/07/25 07:46:45;;;;;;;38.58;30.95;;;19.40;99.90;;;;;;5096488;28;20041;-78
2021/07/25 07:49:10;;;;;;;43.65;36.45;;;19.50;99.90;;;;;;5096474;28;20406;-77
2021/07/25 07:51:36;;;;;;;39.47;27.10;;;19.40;99.90;;;;;;5096495;28;20020;-78
2021/07/25 07:54:02;;;;;;;27.80;18.58;;;19.60;99.90;;;;;;5096460;28;20020;-80
2021/07/25 07:56:29;;;;;;;20.30;10.70;;;20.00;99.90;;;;;;5096348;28;20023;-77
2021/07/25 07:58:55;;;;;;;23.00;18.75;;;20.60;99.90;;;;;;5078114;28;20437;-78
2021/07/25 08:01:21;;;;;;;19.23;9.63;;;20.80;99.90;;;;;;5096224;28;20077;-77
2021/07/25 08:03:47;;;;;;;24.08;17.27;;;20.60;99.90;;;;;;5096399;28;20028;-78
2021/07/25 08:06:13;;;;;;;25.90;19.33;;;20.50;99.90;;;;;;5096152;28;20484;-79
2021/07/25 08:08:38;;;;;;;19.88;9.88;;;20.50;99.90;;;;;;5077865;28;20028;-78
2021/07/25 08:11:04;;;;;;;24.38;14.63;;;20.50;99.90;;;;;;5096130;28;20105;-80
2021/07/25 08:13:30;;;;;;;19.73;10.55;;;20.20;99.90;;;;;;5096024;28;20016;-78
2021/07/25 08:15:56;;;;;;;18.80;14.07;;;20.00;99.90;;;;;;5096071;28;20046;-78
2021/07/25 08:18:21;;;;;;;18.13;10.40;;;20.20;99.90;;;;;;5095911;28;20038;-79
2021/07/25 08:20:47;;;;;;;17.73;12.07;;;20.40;99.90;;;;;;5095943;28;20480;-78
2021/07/25 08:23:13;;;;;;;39.75;35.63;;;20.50;99.90;;;;;;5096065;28;20069;-78
2021/07/25 08:25:38;;;;;;;22.02;13.02;;;20.70;99.90;;;;;;5095848;28;20105;-78
2021/07/25 08:28:04;;;;;;;25.60;17.45;;;21.00;99.90;;;;;;5095644;28;20473;-79
2021/07/25 08:30:32;;;;;;;20.38;13.93;;;21.10;99.90;;;;;;5094823;28;20024;-77
2021/07/25 08:32:58;;;;;;;21.02;18.83;;;21.90;99.90;;;;;;5095995;28;20375;-77
2021/07/25 08:35:24;;;;;;;15.52;13.40;;;22.30;99.90;;;;;;5095739;28;20492;-78
2021/07/25 08:37:50;;;;;;;14.90;10.63;;;22.30;99.90;;;;;;5095456;28;20165;-79
2021/07/25 08:40:17;;;;;;;15.27;9.98;;;22.20;99.90;;;;;;5095534;28;20025;-79
2021/07/25 08:43:01;;;;;;;36.17;32.30;;;21.90;99.90;;;;;;5095648;28;20024;-78
2021/07/25 08:45:27;;;;;;;22.80;16.85;;;21.70;99.90;;;;;;5095527;28;20388;-78
2021/07/25 08:48:09;;;;;;;25.60;22.88;;;21.70;99.90;;;;;;5077102;28;20115;-78
2021/07/25 08:50:38;;;;;;;27.20;18.98;;;21.20;99.90;;;;;;5095573;28;20020;-78
2021/07/25 08:53:04;;;;;;;18.55;11.55;;;21.30;99.90;;;;;;5077106;28;20020;-78
2021/07/25 08:55:31;;;;;;;16.05;9.40;;;21.20;99.90;;;;;;5095211;28;20020;-78
2021/07/25 08:58:07;;;;;;;19.35;13.57;;;21.50;99.90;;;;;;5077133;28;20059;-78
2021/07/25 09:00:33;;;;;;;56.70;41.85;;;21.50;99.90;;;;;;5076633;28;20496;-78
2021/07/25 09:03:00;;;;;;;17.73;12.65;;;21.40;99.90;;;;;;5095045;28;20062;-78
2021/07/25 09:05:26;;;;;;;21.25;17.80;;;21.30;99.90;;;;;;5095041;28;20024;-79
2021/07/25 09:07:52;;;;;;;29.45;22.30;;;21.20;99.90;;;;;;5094895;28;20107;-78
2021/07/25 09:10:21;;;;;;;36.30;32.35;;;21.00;99.90;;;;;;5094887;28;20020;-79
2021/07/25 09:12:49;;;;;;;43.15;35.10;;;20.90;99.90;;;;;;5095288;28;20031;-79
2021/07/25 09:15:22;;;;;;;20.20;14.38;;;20.90;99.90;;;;;;5094521;28;20051;-78
2021/07/25 09:17:48;;;;;;;17.75;13.90;;;20.90;99.90;;;;;;5094872;28;20051;-78
2021/07/25 09:20:24;;;;;;;20.33;14.43;;;21.10;99.90;;;;;;5094763;28;20055;-78
2021/07/25 09:22:50;;;;;;;19.30;13.32;;;21.10;99.90;;;;;;5076560;28;20031;-78
2021/07/25 09:25:22;;;;;;;19.77;13.35;;;21.40;99.90;;;;;;5094635;28;20020;-77
2021/07/25 09:27:58;;;;;;;20.70;18.40;;;21.90;99.90;;;;;;5094540;28;20212;-80
2021/07/25 09:30:25;;;;;;;17.33;12.60;;;21.80;99.90;;;;;;5094692;28;20020;-79
2021/07/25 09:32:52;;;;;;;18.90;11.85;;;22.00;99.90;;;;;;5094599;28;20016;-78
2021/07/25 09:35:27;;;;;;;15.95;11.25;;;22.10;99.90;;;;;;5094479;28;20019;-77
2021/07/25 09:37:54;;;;;;;;;;;22.70;99.90;;;;;;5095021;28;20028;-78
2021/07/25 09:40:28;;;;;;;18.05;12.70;;;23.20;99.90;;;;;;5094257;28;20360;-78
2021/07/25 09:43:21;;;;;;;13.63;10.67;;;23.10;99.90;;;;;;5094357;28;20028;-78
2021/07/25 09:45:50;;;;;;;15.68;11.85;;;22.70;99.90;;;;;;5094505;28;20308;-79
2021/07/25 09:48:17;;;;;;;19.83;14.73;;;22.70;99.90;;;;;;5094205;28;20031;-78
2021/07/25 09:50:43;;;;;;;19.05;12.93;;;22.50;99.90;;;;;;5094289;28;20094;-78
2021/07/25 09:53:08;;;;;;;14.68;11.88;;;23.00;99.90;;;;;;5094139;28;20020;-78
2021/07/25 09:55:35;;;;;;;18.70;12.88;;;23.60;99.90;;;;;;5094231;28;20050;-78
2021/07/25 09:58:00;;;;;;;17.42;15.10;;;24.00;99.90;;;;;;5094044;28;20103;-78
2021/07/25 10:00:43;;;;;;;22.00;19.73;;;24.90;99.90;;;;;;5094093;28;20055;-79
2021/07/25 10:03:18;;;;;;;15.30;12.73;;;24.60;99.90;;;;;;5094204;28;20392;-78
2021/07/25 10:05:44;;;;;;;14.65;11.40;;;25.00;99.90;;;;;;5093955;28;20024;-79
2021/07/25 10:08:20;;;;;;;14.52;10.70;;;24.70;99.90;;;;;;5093739;28;20073;-78
2021/07/25 10:10:48;;;;;;;16.05;11.15;;;26.50;98.00;;;;;;5094066;28;20025;-80
2021/07/25 10:13:20;;;;;;;15.35;12.07;;;28.10;96.60;;;;;;5093648;28;20091;-79
2021/07/25 10:15:55;;;;;;;15.95;13.70;;;29.90;91.90;;;;;;5093837;28;20043;-80
2021/07/25 10:18:22;;;;;;;14.68;12.13;;;27.70;92.00;;;;;;5093579;28;20027;-77
2021/07/25 10:20:57;;;;;;;47.55;42.58;;;26.60;94.90;;;;;;5093372;28;20135;-79
2021/07/25 10:23:47;;;;;;;15.35;13.32;;;25.80;95.60;;;;;;5093592;28;20024;-79
2021/07/25 10:26:14;;;;;;;25.20;22.73;;;26.40;95.20;;;;;;5075072;28;20028;-79
2021/07/25 10:28:41;;;;;;;15.73;14.10;;;26.50;93.90;;;;;;5093382;28;20027;-79
2021/07/25 10:31:08;;;;;;;15.85;10.50;;;26.50;94.40;;;;;;5093468;28;20031;-77
2021/07/25 10:33:35;;;;;;;16.15;9.98;;;26.10;95.60;;;;;;5075317;28;20043;-79
2021/07/25 10:36:03;;;;;;;14.25;10.52;;;26.10;96.50;;;;;;5093414;28;20099;-80
2021/07/25 10:38:29;;;;;;;13.23;9.82;;;26.00;97.10;;;;;;5093418;28;20053;-78
2021/07/25 10:40:56;;;;;;;15.05;10.20;;;25.50;98.20;;;;;;5093438;28;20032;-78
2021/07/25 10:43:25;;;;;;;12.88;10.00;;;24.90;99.90;;;;;;5093441;28;20040;-78
2021/07/25 10:46:20;;;;;;;14.98;10.43;;;24.40;99.90;;;;;;5075256;28;20115;-78
2021/07/25 10:49:05;;;;;;;13.93;9.90;;;24.30;99.90;;;;;;5093333;28;20024;-79
2021/07/25 10:51:34;;;;;;;16.88;14.02;;;24.40;99.90;;;;;;5093403;28;20025;-79
2021/07/25 10:54:23;;;;;;;18.05;12.90;;;24.90;99.90;;;;;;5092833;28;20020;-79
2021/07/25 10:57:02;;;;;;;31.95;28.45;;;29.10;92.90;;;;;;5062952;28;20040;-80
2021/07/25 10:59:46;;;;;;;13.68;9.52;;;30.50;84.60;;;;;;5075496;28;20028;-79
2021/07/25 11:02:22;;;;;;;21.95;19.23;;;31.80;81.00;;;;;;5075154;28;20039;-79
2021/07/25 11:04:50;;;;;;;15.32;9.73;;;30.90;74.40;;;;;;5093214;28;20066;-80
2021/07/25 11:07:37;;;;;;;12.20;8.95;;;31.70;71.90;;;;;;5093147;28;20465;-80
2021/07/25 11:10:09;;;;;;;13.00;10.07;;;31.90;70.20;;;;;;5093328;28;20037;-79
2021/07/25 11:13:04;;;;;;;14.43;12.93;;;32.10;70.40;;;;;;5093218;28;20396;-81
2021/07/25 11:15:33;;;;;;;13.48;10.57;;;32.60;67.80;;;;;;5057345;28;20421;-77
2021/07/25 11:18:05;;;;;;;13.77;11.43;;;31.10;72.20;;;;;;5093073;28;20024;-78
2021/07/25 11:20:39;;;;;;;13.50;11.20;;;30.60;75.90;;;;;;5093077;28;20028;-77
2021/07/25 11:23:26;;;;;;;14.75;11.77;;;29.70;77.90;;;;;;5093068;28;20502;-79
2021/07/25 11:25:53;;;;;;;14.35;10.70;;;28.80;80.10;;;;;;5092458;28;20044;-79
2021/07/25 11:28:38;;;;;;;14.07;11.40;;;27.70;85.60;;;;;;5092974;28;20396;-79
2021/07/25 11:31:05;;;;;;;13.98;10.70;;;26.70;93.00;;;;;;5093001;28;20038;-78
2021/07/25 11:33:40;;;;;;;13.60;10.50;;;26.00;95.50;;;;;;5092988;28;20044;-80
2021/07/25 11:36:10;;;;;;;15.30;11.27;;;25.80;97.50;;;;;;5093325;28;20020;-77
2021/07/25 11:38:37;;;;;;;16.65;11.32;;;27.30;96.00;;;;;;5093040;28;20035;-79
2021/07/25 11:41:04;;;;;;;15.25;11.90;;;27.90;91.90;;;;;;5092912;28;20021;-79
2021/07/25 11:43:50;;;;;;;16.23;13.73;;;27.70;91.20;;;;;;5074767;28;20086;-79
2021/07/25 11:46:30;;;;;;;13.10;10.52;;;26.90;92.30;;;;;;5093041;28;20023;-78
2021/07/25 11:49:06;;;;;;;13.50;10.55;;;26.50;92.50;;;;;;5092729;28;20050;-79
2021/07/25 11:51:36;;;;;;;14.52;10.90;;;25.90;95.30;;;;;;5092786;28;20357;-77
2021/07/25 11:54:02;;;;;;;13.55;10.52;;;25.90;97.30;;;;;;5092760;28;20020;-79
2021/07/25 11:56:28;;;;;;;14.98;10.32;;;26.00;98.20;;;;;;5092794;28;20024;-76
2021/07/25 11:59:02;;;;;;;14.15;11.05;;;25.90;97.70;;;;;;5092684;28;20024;-78
2021/07/25 12:01:28;;;;;;;13.52;11.30;;;25.50;99.00;;;;;;5074491;28;20369;-79
2021/07/25 12:03:54;;;;;;;15.48;11.73;;;25.40;99.90;;;;;;5093916;28;20059;-79
2021/07/25 12:06:20;;;;;;;15.55;10.85;;;25.40;99.90;;;;;;5096212;28;20028;-78
2021/07/25 12:09:08;;;;;;;13.93;11.07;;;25.60;99.90;;;;;;5096038;28;20058;-79
2021/07/25 12:11:35;;;;;;;13.57;10.80;;;26.10;99.90;;;;;;5096329;28;20016;-79
2021/07/25 12:14:02;;;;;;;16.33;11.27;;;28.20;96.80;;;;;;5096006;28;20064;-78
2021/07/25 12:16:48;;;;;;;15.70;10.95;;;29.10;93.30;;;;;;5096054;28;20020;-79
2021/07/25 12:19:15;;;;;;;13.68;9.70;;;29.90;91.70;;;;;;5096491;28;20103;-80
2021/07/25 12:21:42;;;;;;;12.93;11.13;;;29.70;90.30;;;;;;5096376;28;20012;-79
2021/07/25 12:24:30;;;;;;;13.48;11.57;;;29.30;89.50;;;;;;5077719;28;20047;-79
2021/07/25 12:26:57;;;;;;;13.70;12.23;;;28.90;88.30;;;;;;5095839;28;20019;-80
2021/07/25 12:29:42;;;;;;;12.23;10.25;;;27.90;90.80;;;;;;5095879;28;20081;-80
2021/07/25 12:32:22;;;;;;;14.90;13.30;;;27.30;93.70;;;;;;5096050;28;20500;-79
2021/07/25 12:34:50;;;;;;;14.23;10.77;;;26.70;95.50;;;;;;5095579;28;20025;-78
2021/07/25 12:37:25;;;;;;;14.50;11.65;;;26.20;96.80;;;;;;5095659;28;20479;-77
2021/07/25 12:40:04;;;;;;;15.85;10.82;;;25.60;98.60;;;;;;5095808;28;20024;-79
2021/07/25 12:42:40;;;;;;;15.25;10.93;;;24.50;99.90;;;;;;5095619;28;20026;-78
2021/07/25 12:45:28;;;;;;;18.30;11.95;;;24.00;99.90;;;;;;5095566;28;20099;-78
2021/07/25 12:48:30;;;;;;;13.73;10.82;;;23.90;99.90;;;;;;5095387;28;20472;-79
2021/07/25 12:51:31;;;;;;;17.88;13.07;;;23.50;99.90;;;;;;5095673;28;20529;-79